Data for 12/29/2014

Time Sea-Level Adjusted Pressure Absolute Pressure Temperature Relative Humidity Dew Point   
(mb) (inHg) (mb) (inHg) (C) (F) (%) (C) (F)
00:05 1022 30.18 851 25.13 -11.1 12 73 -15.1 4.8
00:10 1022 30.18 851 25.13 -11.2 11.8 72 -15.3 4.5
00:15 1022 30.18 851 25.13 -11.3 11.7 72 -15.3 4.4
00:20 1022 30.18 851 25.13 -11.4 11.6 72 -15.4 4.3
00:25 1022 30.18 851 25.13 -11.4 11.5 72 -15.4 4.2
00:30 1022 30.18 851 25.13 -11.5 11.3 73 -15.5 4.1
00:35 1022 30.18 851 25.13 -11.5 11.3 72 -15.5 4.1
00:40 1022 30.18 851 25.13 -11.5 11.2 73 -15.4 4.2
00:45 1022 30.18 851 25.13 -11.6 11.2 74 -15.4 4.3
00:50 1022 30.18 851 25.13 -11.6 11.1 74 -15.4 4.3
00:55 1022 30.18 851 25.13 -11.7 11 74 -15.4 4.3
01:00 1022 30.18 851 25.13 -11.7 11 74 -15.5 4.2
01:05 1022 30.18 851 25.13 -11.7 11 73 -15.6 4
01:10 1022 30.18 851 25.13 -11.7 10.9 75 -15.3 4.4
01:15 1022 30.18 851 25.13 -11.8 10.8 75 -15.4 4.3
01:20 1022 30.18 851 25.13 -11.8 10.7 77 -15.1 4.9
01:25 1022 30.18 851 25.13 -12 10.5 81 -14.6 5.7
01:30 1022 30.18 851 25.13 -12 10.3 82 -14.5 5.8
01:35 1022 30.18 852 25.16 -12.1 10.2 82 -14.6 5.8
01:40 1022 30.18 852 25.16 -12.2 10.1 83 -14.5 5.8
01:45 1022 30.18 852 25.16 -12.3 9.8 82 -14.7 5.5
01:50 1022 30.18 852 25.16 -12.4 9.8 81 -15 5.1
01:55 1022 30.18 852 25.16 -12.3 9.9 81 -15 5.1
02:00 1022 30.18 852 25.16 -12.4 9.8 81 -15 4.9
02:05 1022 30.18 852 25.16 -12.4 9.7 81 -15.1 4.8
02:10 1022 30.18 852 25.16 -12.5 9.5 83 -14.9 5.3
02:15 1022 30.18 852 25.16 -12.5 9.5 82 -15.1 4.9
02:20 1022 30.18 852 25.16 -12.5 9.5 80 -15.2 4.6
02:25 1023 30.21 852 25.16 -12.4 9.7 80 -15.1 4.8
02:30 1023 30.21 852 25.16 -12.5 9.6 82 -14.9 5.2
02:35 1023 30.21 852 25.16 -12.7 9.1 84 -14.9 5.2
02:40 1023 30.21 852 25.16 -12.8 9 85 -14.9 5.2
02:45 1023 30.21 852 25.16 -12.7 9.2 85 -14.7 5.6
02:50 1023 30.21 852 25.16 -12.9 8.8 87 -14.7 5.6
02:55 1023 30.21 852 25.16 -12.9 8.8 86 -14.8 5.4
03:00 1023 30.21 852 25.16 -12.6 9.3 83 -14.9 5.1
03:05 1023 30.21 852 25.16 -12.7 9.2 84 -14.9 5.2
03:10 1023 30.21 852 25.16 -12.8 8.9 85 -14.9 5.1
03:15 1023 30.21 852 25.16 -12.8 8.9 85 -14.9 5.3
03:20 1023 30.21 852 25.16 -12.8 9 84 -15 5
03:25 1023 30.21 852 25.16 -12.7 9.2 83 -14.9 5.1
03:30 1023 30.21 852 25.16 -12.8 9 84 -14.9 5.1
03:35 1023 30.21 852 25.16 -12.8 9 84 -15 5.1
03:40 1023 30.21 852 25.16 -12.8 8.9 85 -14.9 5.1
03:45 1023 30.21 853 25.19 -12.7 9.2 82 -15.1 4.8
03:50 1023 30.21 853 25.19 -12.4 9.7 80 -15.3 4.5
03:55 1023 30.21 853 25.19 -12.5 9.5 81 -15.2 4.7
04:00 1023 30.21 853 25.19 -12.6 9.4 80 -15.3 4.5
04:05 1023 30.21 853 25.19 -12.6 9.4 81 -15.2 4.7
04:10 1024 30.24 853 25.19 -12.6 9.3 80 -15.3 4.4
04:15 1024 30.24 853 25.19 -12.6 9.4 78 -15.6 3.9
04:20 1024 30.24 853 25.19 -12.6 9.3 79 -15.5 4
04:25 1024 30.24 853 25.19 -12.7 9.1 80 -15.4 4.2
04:30 1024 30.24 853 25.19 -12.8 9 81 -15.4 4.2
04:35 1024 30.24 853 25.19 -12.8 9 80 -15.6 3.9
04:40 1024 30.24 853 25.19 -12.8 8.9 81 -15.5 4.1
04:45 1024 30.24 853 25.19 -12.9 8.8 81 -15.5 4.1
04:50 1024 30.24 853 25.19 -12.8 8.9 79 -15.7 3.7
04:55 1024 30.24 853 25.19 -12.7 9.1 78 -15.8 3.6
05:00 1024 30.24 853 25.19 -12.8 9 78 -15.8 3.5
05:05 1024 30.24 853 25.19 -12.7 9.1 78 -15.8 3.5
05:10 1024 30.24 853 25.19 -12.8 9.1 77 -15.9 3.3
05:15 1024 30.24 853 25.19 -12.7 9.1 77 -15.9 3.4
05:20 1024 30.24 853 25.19 -12.8 9 79 -15.8 3.6
05:25 1024 30.24 853 25.19 -12.8 8.9 79 -15.7 3.7
05:30 1024 30.24 853 25.19 -12.7 9.1 77 -15.9 3.4
05:35 1024 30.24 853 25.19 -12.7 9.2 76 -16.1 3.1
05:40 1024 30.24 853 25.19 -12.5 9.5 74 -16.3 2.7
05:45 1024 30.24 853 25.19 -12.4 9.7 73 -16.4 2.5
05:50 1024 30.24 853 25.19 -12.4 9.6 74 -16.1 3
05:55 1024 30.24 853 25.19 -12.5 9.5 75 -16.1 3.1
06:00 1024 30.24 853 25.19 -12.5 9.4 74 -16.3 2.6
06:05 1024 30.24 853 25.19 -12.6 9.3 76 -16.1 3.1
06:10 1024 30.24 854 25.22 -12.7 9.2 76 -16.1 3.1
06:15 1024 30.24 854 25.22 -12.6 9.3 76 -16 3.2
06:20 1024 30.24 854 25.22 -12.7 9.1 78 -15.8 3.5
06:25 1025 30.27 854 25.22 -13 8.6 79 -16 3.2
06:30 1025 30.27 854 25.22 -12.9 8.7 76 -16.3 2.6
06:35 1025 30.27 854 25.22 -12.8 9.1 74 -16.5 2.4
06:40 1024 30.24 854 25.22 -12.7 9.1 73 -16.5 2.2
06:45 1025 30.27 854 25.22 -12.8 9 75 -16.4 2.5
06:50 1025 30.27 854 25.22 -13 8.6 75 -16.5 2.2
06:55 1025 30.27 854 25.22 -13.2 8.2 75 -16.7 2
07:00 1025 30.27 854 25.22 -13.3 8 76 -16.7 1.9
07:05 1025 30.27 854 25.22 -13.4 7.9 75 -16.9 1.6
07:10 1025 30.27 854 25.22 -13.5 7.8 75 -17 1.5
07:15 1025 30.27 854 25.22 -13.4 7.8 75 -17 1.3
07:20 1025 30.27 854 25.22 -13.4 7.8 75 -17 1.3
07:25 1025 30.27 854 25.22 -13.5 7.8 75 -17 1.3
07:30 1025 30.27 854 25.22 -13.5 7.7 74 -17.1 1.1
07:35 1025 30.27 854 25.22 -13.6 7.6 75 -17.2 1.1
07:40 1025 30.27 854 25.22 -13.7 7.3 74 -17.5 0.6
07:45 1025 30.27 855 25.25 -13.8 7.2 74 -17.5 0.5
07:50 1025 30.27 855 25.25 -13.9 7 74 -17.6 0.4
07:55 1025 30.27 855 25.25 -13.9 6.9 73 -17.7 0.1
08:00 1026 30.3 855 25.25 -14 6.8 73 -17.8 -0.1
08:05 1026 30.3 855 25.25 -14.1 6.6 74 -17.9 -0.1
08:10 1026 30.3 855 25.25 -14.3 6.3 75 -17.8 -0.1
08:15 1026 30.3 855 25.25 -14.4 6.1 75 -17.9 -0.3
08:20 1026 30.3 855 25.25 -14.4 6 75 -18 -0.4
08:25 1026 30.3 855 25.25 -14.5 6 75 -18 -0.3
08:30 1026 30.3 855 25.25 -14.5 5.9 75 -18 -0.5
08:35 1026 30.3 855 25.25 -14.5 5.9 75 -18.1 -0.6
08:40 1026 30.3 855 25.25 -14.6 5.8 74 -18.2 -0.8
08:45 1026 30.3 855 25.25 -14.6 5.8 73 -18.3 -1
08:50 1026 30.3 855 25.25 -14.5 5.9 72 -18.5 -1.2
08:55 1026 30.3 855 25.25 -14.4 6 72 -18.5 -1.2
09:00 1026 30.3 855 25.25 -14.5 5.9 72 -18.5 -1.3
09:05 1026 30.3 855 25.25 -14.5 6 68 -19.2 -2.5
09:10 1026 30.3 855 25.25 -14.5 6 70 -18.8 -1.8
09:15 1026 30.3 855 25.25 -14.6 5.7 70 -18.9 -2.1
09:20 1026 30.3 855 25.25 -14.7 5.5 71 -18.9 -2
09:25 1026 30.3 855 25.25 -14.7 5.6 68 -19.4 -2.9
09:30 1026 30.3 855 25.25 -14.7 5.5 70 -19.1 -2.4
09:35 1026 30.3 855 25.25 -14.9 5.2 70 -19.1 -2.5
09:40 1026 30.3 856 25.28 -14.9 5.1 69 -19.4 -2.9
09:45 1026 30.3 856 25.28 -14.9 5.2 69 -19.3 -2.8
09:50 1027 30.33 856 25.28 -15 5 70 -19.2 -2.6
09:55 1027 30.33 856 25.28 -15 5 70 -19.4 -2.9
10:00 1027 30.33 856 25.28 -14.9 5.2 69 -19.4 -2.9
10:05 1027 30.33 856 25.28 -14.9 5.3 69 -19.4 -2.9
10:10 1027 30.33 856 25.28 -14.9 5.3 70 -19.1 -2.4
10:15 1027 30.33 856 25.28 -15.1 4.9 71 -19.3 -2.7
10:20 1027 30.33 856 25.28 -15.1 4.7 70 -19.4 -2.9
10:25 1027 30.33 856 25.28 -15.3 4.5 71 -19.4 -3
10:30 1027 30.33 856 25.28 -15.3 4.5 70 -19.5 -3.2
10:35 1027 30.33 856 25.28 -15.4 4.3 70 -19.6 -3.3
10:40 1027 30.33 857 25.31 -15.4 4.3 70 -19.7 -3.4
10:45 1027 30.33 857 25.31 -15.4 4.3 71 -19.6 -3.2
10:50 1027 30.33 857 25.31 -15.4 4.2 70 -19.7 -3.4
10:55 1028 30.36 857 25.31 -15.4 4.2 70 -19.8 -3.6
11:00 1028 30.36 857 25.31 -15.4 4.2 70 -19.7 -3.4
11:05 1027 30.33 857 25.31 -15.4 4.3 70 -19.7 -3.5
11:10 1028 30.36 857 25.31 -15.4 4.3 70 -19.7 -3.4
11:15 1028 30.36 857 25.31 -15.3 4.4 70 -19.6 -3.3
11:20 1028 30.36 857 25.31 -15.4 4.4 70 -19.7 -3.5
11:25 1028 30.36 857 25.31 -15.4 4.3 70 -19.8 -3.6
11:30 1028 30.36 857 25.31 -15.4 4.3 70 -19.7 -3.5
11:35 1028 30.36 857 25.31 -15.4 4.4 69 -19.8 -3.6
11:40 1028 30.36 857 25.31 -15.4 4.3 69 -19.8 -3.7
11:45 1028 30.36 857 25.31 -15.4 4.3 69 -19.9 -3.7
11:50 1028 30.36 857 25.31 -15.3 4.4 69 -19.7 -3.5
11:55 1028 30.36 857 25.31 -15.4 4.4 69 -19.8 -3.6
12:00 1028 30.36 857 25.31 -15.4 4.4 69 -19.8 -3.6
12:05 1028 30.36 857 25.31 -15.3 4.4 70 -19.7 -3.5
12:10 1028 30.36 857 25.31 -15.3 4.4 68 -19.9 -3.8
12:15 1028 30.36 857 25.31 -15.3 4.5 68 -20 -4
12:20 1028 30.36 857 25.31 -15.3 4.5 69 -19.8 -3.6
12:25 1028 30.36 857 25.31 -15.3 4.5 69 -19.8 -3.6
12:30 1028 30.36 857 25.31 -15.3 4.6 69 -19.8 -3.6
12:35 1028 30.36 857 25.31 -15.1 4.7 68 -19.8 -3.6
12:40 1028 30.36 857 25.31 -15.2 4.7 68 -19.9 -3.8
12:45 1028 30.36 857 25.31 -15.2 4.7 68 -19.9 -3.8
12:50 1028 30.36 857 25.31 -15 4.9 66 -20.1 -4.1
12:55 1028 30.36 857 25.31 -15 4.9 67 -19.9 -3.8
13:00 1028 30.36 857 25.31 -15.2 4.7 67 -20 -3.9
13:05 1028 30.36 857 25.31 -15.6 4 67 -20.4 -4.6
13:10 1028 30.36 857 25.31 -15.7 3.8 67 -20.4 -4.8
13:15 1028 30.36 857 25.31 -15.7 3.8 68 -20.3 -4.6
13:20 1028 30.36 857 25.31 -15.7 3.8 68 -20.4 -4.7
13:25 1028 30.36 857 25.31 -15.5 4.2 66 -20.4 -4.7
13:30 1028 30.36 857 25.31 -15.6 4 67 -20.4 -4.7
13:35 1028 30.36 857 25.31 -15.6 4 67 -20.4 -4.7
13:40 1028 30.36 857 25.31 -15.7 3.7 67 -20.5 -4.9
13:45 1027 30.33 857 25.31 -15.7 3.7 67 -20.4 -4.8
13:50 1027 30.33 857 25.31 -15.7 3.8 67 -20.5 -4.9
13:55 1027 30.33 857 25.31 -15.8 3.6 68 -20.4 -4.8
14:00 1027 30.33 857 25.31 -15.8 3.6 67 -20.6 -5.1
14:05 1027 30.33 857 25.31 -15.6 4 67 -20.4 -4.6
14:10 1027 30.33 857 25.31 -15.7 3.8 67 -20.4 -4.8
14:15 1027 30.33 857 25.31 -15.6 4 66 -20.6 -5.1
14:20 1028 30.36 857 25.31 -15.4 4.2 65 -20.6 -5
14:25 1028 30.36 857 25.31 -15.6 3.9 66 -20.6 -5
14:30 1028 30.36 857 25.31 -15.7 3.8 67 -20.5 -4.9
14:35 1028 30.36 857 25.31 -15.6 3.9 66 -20.6 -5.1
14:40 1028 30.36 857 25.31 -15.7 3.8 67 -20.6 -5
14:45 1028 30.36 857 25.31 -15.9 3.4 67 -20.6 -5.1
14:50 1028 30.36 857 25.31 -15.9 3.5 67 -20.6 -5.1
14:55 1028 30.36 857 25.31 -15.9 3.3 68 -20.6 -5.1
15:00 1028 30.36 857 25.31 -15.8 3.6 67 -20.7 -5.2
15:05 1028 30.36 857 25.31 -15.9 3.5 68 -20.5 -4.8
15:10 1028 30.36 857 25.31 -15.8 3.7 67 -20.5 -5
15:15 1028 30.36 857 25.31 -15.7 3.8 68 -20.4 -4.7
15:20 1028 30.36 857 25.31 -15.8 3.6 67 -20.6 -5.1
15:25 1028 30.36 857 25.31 -16 3.3 67 -20.7 -5.2
15:30 1028 30.36 857 25.31 -15.8 3.5 67 -20.7 -5.2
15:35 1028 30.36 857 25.31 -15.9 3.4 67 -20.7 -5.2
15:40 1028 30.36 857 25.31 -16 3.2 68 -20.6 -5
15:45 1028 30.36 857 25.31 -16 3.1 68 -20.6 -5.1
15:50 1028 30.36 857 25.31 -16 3.1 68 -20.6 -5
15:55 1028 30.36 857 25.31 -16.2 2.9 68 -20.7 -5.2
16:00 1028 30.36 857 25.31 -16.2 2.9 69 -20.6 -5.1
16:05 1028 30.36 857 25.31 -16.2 2.9 69 -20.6 -5.1
16:10 1028 30.36 857 25.31 -16.2 2.9 68 -20.7 -5.3
16:15 1028 30.36 858 25.34 -16.2 2.9 69 -20.7 -5.2
16:20 1028 30.36 858 25.34 -16.2 2.9 68 -20.8 -5.4
16:25 1028 30.36 858 25.34 -16.2 2.8 68 -20.9 -5.6
16:30 1029 30.39 858 25.34 -16.2 2.8 68 -20.8 -5.5
16:35 1029 30.39 858 25.34 -16.3 2.7 68 -20.9 -5.7
16:40 1029 30.39 858 25.34 -16.4 2.5 69 -20.8 -5.4
16:45 1029 30.39 858 25.34 -16.4 2.5 69 -20.9 -5.6
16:50 1029 30.39 858 25.34 -16.5 2.4 68 -21 -5.8
16:55 1029 30.39 858 25.34 -16.5 2.3 68 -21.1 -6
17:00 1029 30.39 858 25.34 -16.5 2.2 68 -21.1 -5.9
17:05 1029 30.39 858 25.34 -16.6 2.2 66 -21.4 -6.6
17:10 1029 30.39 858 25.34 -16.6 2.1 66 -21.5 -6.8
17:15 1029 30.39 858 25.34 -16.7 1.9 67 -21.6 -6.9
17:20 1029 30.39 858 25.34 -16.8 1.7 66 -21.7 -7
17:25 1029 30.39 858 25.34 -16.8 1.7 66 -21.8 -7.3
17:30 1029 30.39 858 25.34 -16.9 1.6 67 -21.7 -7
17:35 1029 30.39 858 25.34 -16.9 1.7 66 -21.8 -7.2
17:40 1029 30.39 858 25.34 -16.9 1.5 67 -21.7 -7.1
17:45 1029 30.39 859 25.37 -17.1 1.3 67 -21.7 -7.1
17:50 1029 30.39 859 25.37 -17 1.4 65 -22 -7.7
17:55 1029 30.39 859 25.37 -17 1.3 66 -21.9 -7.5
18:00 1030 30.42 859 25.37 -17.1 1.3 65 -22.1 -7.8
18:05 1030 30.42 859 25.37 -17 1.5 63 -22.5 -8.5
18:10 1029 30.39 859 25.37 -17 1.5 63 -22.4 -8.4
18:15 1030 30.42 859 25.37 -17 1.4 64 -22.4 -8.3
18:20 1030 30.42 859 25.37 -17.2 1 65 -22.4 -8.3
18:25 1030 30.42 859 25.37 -17.2 1 64 -22.5 -8.5
18:30 1030 30.42 859 25.37 -17.4 0.8 65 -22.4 -8.3
18:35 1030 30.42 859 25.37 -17.5 0.6 67 -22.2 -8
18:40 1030 30.42 859 25.37 -17.5 0.4 67 -22.4 -8.2
18:45 1030 30.42 859 25.37 -17.5 0.4 66 -22.5 -8.5
18:50 1030 30.42 859 25.37 -17.5 0.4 67 -22.3 -8.2
18:55 1030 30.42 859 25.37 -17.6 0.3 66 -22.5 -8.6
19:00 1030 30.42 859 25.37 -17.6 0.3 66 -22.5 -8.5
19:05 1030 30.42 859 25.37 -17.6 0.3 64 -22.8 -9.1
19:10 1030 30.42 859 25.37 -17.6 0.3 65 -22.8 -9
19:15 1030 30.42 859 25.37 -17.6 0.2 65 -22.8 -9.1
19:20 1030 30.42 859 25.37 -17.6 0.3 64 -22.9 -9.1
19:25 1030 30.42 859 25.37 -17.7 0.1 63 -23.1 -9.5
19:30 1030 30.42 859 25.37 -17.7 0.2 63 -23.1 -9.6
19:35 1030 30.42 859 25.37 -17.7 0.2 63 -23.1 -9.5
19:40 1030 30.42 859 25.37 -17.8 0.1 65 -22.9 -9.2
19:45 1030 30.42 859 25.37 -17.9 -0.1 64 -23.1 -9.5
19:50 1030 30.42 860 25.4 -17.9 -0.2 66 -22.8 -9.1
19:55 1030 30.42 860 25.4 -18 -0.4 67 -22.8 -9
20:00 1030 30.42 860 25.4 -18.1 -0.5 66 -23 -9.4
20:05 1030 30.42 860 25.4 -18 -0.5 66 -22.9 -9.3
20:10 1030 30.42 860 25.4 -18.1 -0.5 65 -23.2 -9.8
20:15 1030 30.42 860 25.4 -18 -0.5 65 -23.1 -9.5
20:20 1030 30.42 860 25.4 -18.1 -0.6 67 -22.9 -9.2
20:25 1030 30.42 860 25.4 -18.3 -0.9 68 -22.7 -8.9
20:30 1031 30.45 860 25.4 -18.5 -1.2 70 -22.6 -8.7
20:35 1031 30.45 860 25.4 -18.6 -1.5 71 -22.7 -8.8
20:40 1031 30.45 860 25.4 -18.7 -1.7 71 -22.7 -8.9
20:45 1031 30.45 860 25.4 -18.8 -1.9 71 -22.9 -9.1
20:50 1031 30.45 860 25.4 -18.8 -1.9 71 -22.9 -9.2
20:55 1031 30.45 860 25.4 -18.9 -2.1 71 -23 -9.4
21:00 1031 30.45 860 25.4 -19 -2.2 71 -23 -9.4
21:05 1031 30.45 860 25.4 -19.1 -2.5 71 -23.1 -9.6
21:10 1031 30.45 860 25.4 -19.3 -2.7 71 -23.2 -9.8
21:15 1031 30.45 860 25.4 -19.3 -2.8 72 -23.3 -9.9
21:20 1031 30.45 860 25.4 -19.5 -3 72 -23.3 -10
21:25 1031 30.45 860 25.4 -19.5 -3.2 72 -23.4 -10.2
21:30 1031 30.45 860 25.4 -19.6 -3.2 72 -23.5 -10.3
21:35 1031 30.45 860 25.4 -19.7 -3.4 71 -23.6 -10.5
21:40 1031 30.45 860 25.4 -19.7 -3.5 72 -23.6 -10.5
21:45 1031 30.45 861 25.43 -19.8 -3.6 72 -23.7 -10.7
21:50 1031 30.45 861 25.43 -19.9 -3.7 72 -23.7 -10.7
21:55 1031 30.45 861 25.43 -19.9 -3.8 72 -23.8 -10.8
22:00 1032 30.47 861 25.43 -19.9 -3.9 71 -23.9 -10.9
22:05 1032 30.47 861 25.43 -19.9 -3.9 71 -23.9 -11.1
22:10 1032 30.47 861 25.43 -20 -3.9 71 -24 -11.2
22:15 1032 30.47 861 25.43 -20 -3.9 70 -24.1 -11.3
22:20 1032 30.47 861 25.43 -20 -3.9 71 -24 -11.2
22:25 1032 30.47 861 25.43 -20 -4 71 -24 -11.2
22:30 1032 30.47 861 25.43 -20 -4 70 -24.1 -11.4
22:35 1032 30.47 861 25.43 -20 -4.1 70 -24.1 -11.4
22:40 1032 30.47 861 25.43 -20 -4.1 70 -24.1 -11.4
22:45 1032 30.47 861 25.43 -20.1 -4.1 70 -24.2 -11.5
22:50 1032 30.47 861 25.43 -20 -4.1 70 -24.2 -11.5
22:55 1032 30.47 861 25.43 -20.1 -4.1 70 -24.2 -11.6
23:00 1032 30.47 861 25.43 -20.1 -4.1 71 -24.1 -11.4
23:05 1032 30.47 861 25.43 -20.1 -4.2 71 -24.2 -11.5
23:10 1032 30.47 861 25.43 -20.2 -4.3 71 -24.2 -11.6
23:15 1032 30.47 861 25.43 -20.2 -4.3 70 -24.3 -11.7
23:20 1032 30.47 861 25.43 -20.2 -4.3 69 -24.4 -11.9
23:25 1032 30.47 862 25.45 -20.1 -4.2 70 -24.3 -11.8
23:30 1032 30.47 862 25.45 -20.2 -4.3 70 -24.3 -11.7
23:35 1032 30.47 862 25.45 -20.2 -4.3 69 -24.4 -12
23:40 1032 30.47 862 25.45 -20.2 -4.4 69 -24.5 -12.1
23:45 1032 30.47 862 25.45 -20.2 -4.4 69 -24.6 -12.2
23:50 1032 30.47 862 25.45 -20.3 -4.5 69 -24.6 -12.2
23:55 1032 30.47 862 25.45 -20.3 -4.5 69 -24.7 -12.4
24:00 1033 30.5 862 25.45 -20.3 -4.5 69 -24.6 -12.2